• Join FlightAware (Why Join?)
  • Login
  • US Flag 
05:27AM EST


 

Airport Tracker/Info


-or-


 

Live Flight TrackerFlight Track Log ✈ JUS327 ✈ 02-May-2013 ✈ KYIP - KSHV

Flight Track Log - Related Links

Times and Time Zones

All times are in EDT time to prevent confusion due to time zone crossing. See the JUS327 flight status page for this flight to view local times or setup timezone preferences in your user account.

Time Position Orientation Groundspeed Altitude Reporting Facility
EDT Latitude Longitude Course Direction KTS MPH feet Rate Location/Type
05:25PM 42.2239 -83.5528 223° Southwest 155 178 1,900  Level Cleveland Center
05:26PM 42.1828 -83.6039 223° Southwest 210 242 3,400 1,800 Climbing Cleveland Center
05:27PM 42.1272 -83.6544 214° Southwest 256 295 5,600 2,400 Climbing Cleveland Center
05:29PM 42.0433 -83.6756 191° South 282 325 8,900 2,400 Climbing Cleveland Center
05:30PM 41.9697 -83.7000 194° South 282 325 11,000 2,100 Climbing Cleveland Center
05:31PM 41.8836 -83.7267 193° South 294 338 13,100 2,160 Climbing Cleveland Center
05:32PM 41.7931 -83.7583 195° South 321 369 15,400 2,340 Climbing Cleveland Center
05:33PM 41.7006 -83.7872 193° South 335 386 17,800 2,280 Climbing Cleveland Center
05:34PM 41.6114 -83.8356 202° Southwest 345 397 20,000 1,860 Climbing Cleveland Center
05:35PM 41.5283 -83.9006 210° Southwest 345 397 21,600 1,500 Climbing Cleveland Center
05:36PM 41.4406 -83.9764 213° Southwest 361 415 23,100 1,560 Climbing Cleveland Center
05:37PM 41.3686 -84.0781 227° Southwest 373 429 24,800 1,620 Climbing Cleveland Center
05:38PM 41.2919 -84.2750 243° Southwest 394 453 27,200 1,380 Climbing Chicago Center
05:39PM 41.2539 -84.4167 250° West 404 465 28,300 960 Climbing Chicago Center
05:40PM 41.2044 -84.5561 245° Southwest 415 478 29,200 1,020 Climbing Chicago Center
05:41PM 41.1514 -84.6978 244° Southwest 424 488 30,500 1,260 Climbing Chicago Center
05:42PM 41.1042 -84.8394 246° West 421 484 31,900 1,500 Climbing Chicago Center
05:43PM 41.0558 -84.9786 245° Southwest 416 479 33,600 960 Climbing Chicago Center
05:44PM 41.0044 -85.1136 243° Southwest 411 473 34,000 180 Climbing Chicago Center
05:45PM 40.9453 -85.2756 244° Southwest 409 471 34,000  Level Chicago Center
05:46PM 40.8686 -85.3742 224° Southwest 412 474 34,000  Level Chicago Center
05:47PM 40.7656 -85.4325 203° Southwest 403 464 34,000  Level Chicago Center
05:48PM 40.6611 -85.4956 205° Southwest 397 457 34,000  Level Chicago Center
05:50PM 40.5714 -85.5819 216° Southwest 399 459 34,000  Level Chicago Center
05:51PM 40.4875 -85.6817 222° Southwest 406 467 34,000  Level Chicago Center
05:52PM 40.4017 -85.7783 221° Southwest 408 470 34,000  Level Chicago Center
05:53PM 40.2931 -85.8850 217° Southwest 409 471 34,000  Level Chicago Center
05:54PM 40.2031 -85.9728 217° Southwest 406 467 34,000  Level Chicago Center
05:55PM 40.1139 -86.0633 218° Southwest 407 468 34,000  Level Chicago Center
05:56PM 40.0261 -86.1556 219° Southwest 406 467 34,000  Level Indianapolis Center
05:57PM 39.9378 -86.2461 218° Southwest 409 471 34,000  Level Chicago Center
05:58PM 39.8314 -86.3531 218° Southwest 407 468 34,000  Level Chicago Center
05:59PM 39.7422 -86.4350 215° Southwest 410 472 34,000  Level Indianapolis Center
06:00PM 39.6467 -86.5083 211° Southwest 408 470 34,000  Level Indianapolis Center
06:01PM 39.5472 -86.5758 208° Southwest 407 468 34,000  Level Indianapolis Center
06:02PM 39.4281 -86.6572 208° Southwest 406 467 34,000  Level Indianapolis Center
06:03PM 39.3300 -86.7311 210° Southwest 409 471 34,000  Level Indianapolis Center
06:04PM 39.2333 -86.8072 211° Southwest 409 471 34,000  Level Indianapolis Center
06:05PM 39.1278 -86.8864 210° Southwest 409 471 34,000  Level Indianapolis Center
06:06PM 39.0292 -86.9589 210° Southwest 409 471 34,000  Level Indianapolis Center
06:07PM 38.9289 -87.0303 209° Southwest 411 473 34,000  Level Indianapolis Center
06:08PM 38.8297 -87.1031 210° Southwest 411 473 34,000  Level Indianapolis Center
06:09PM 38.7306 -87.1761 210° Southwest 411 473 34,000  Level Indianapolis Center
06:10PM 38.6114 -87.2639 210° Southwest 413 475 34,000  Level Indianapolis Center
06:11PM 38.5117 -87.3353 209° Southwest 414 476 34,000  Level Indianapolis Center
06:12PM 38.4117 -87.4072 209° Southwest 416 479 34,000  Level Indianapolis Center
06:13PM 38.3122 -87.4819 211° Southwest 417 480 34,000  Level Indianapolis Center
06:14PM 38.2114 -87.5539 209° Southwest 418 481 34,000  Level Indianapolis Center
06:15PM 38.0903 -87.6422 210° Southwest 419 482 34,000  Level Indianapolis Center
06:16PM 37.9892 -87.7144 209° Southwest 418 481 34,000  Level Indianapolis Center
06:17PM 37.8867 -87.7878 209° Southwest 421 484 34,000  Level Indianapolis Center
06:18PM 37.7861 -87.8636 211° Southwest 420 483 34,000  Level Indianapolis Center
06:20PM 37.6872 -87.9475 214° Southwest 419 482 34,000  Level Indianapolis Center
06:20PM 37.6097 -88.0219 217° Southwest 421 484 34,000  Level Memphis Center
06:21PM 37.5133 -88.0981 212° Southwest 421 484 34,000  Level Memphis Center
06:22PM 37.4147 -88.1767 212° Southwest 421 484 34,000  Level Memphis Center
06:23PM 37.3181 -88.2497 211° Southwest 421 484 34,000  Level Memphis Center
06:24PM 37.2194 -88.3253 211° Southwest 421 484 34,000  Level Memphis Center
06:25PM 37.1228 -88.4006 212° Southwest 421 484 34,000  Level Memphis Center
06:26PM 37.0258 -88.4731 211° Southwest 421 484 34,000  Level Memphis Center
06:27PM 36.9311 -88.5453 211° Southwest 421 484 34,000  Level Memphis Center
06:28PM 36.8364 -88.6175 211° Southwest 416 479 34,000  Level Memphis Center
06:29PM 36.7414 -88.6947 213° Southwest 416 479 34,000  Level Memphis Center
06:30PM 36.6444 -88.7639 210° Southwest 410 472 34,000  Level Memphis Center
06:31PM 36.5517 -88.8356 212° Southwest 410 472 34,000  Level Memphis Center
06:32PM 36.4544 -88.9094 211° Southwest 410 472 34,000  Level Memphis Center
06:34PM 36.3391 -88.9930 210° Southwest  Level FlightAware Approximate
06:34PM 36.2703 -89.0417 210° Southwest 410 472 34,000  Level Memphis Center
06:35PM 36.1753 -89.1175 213° Southwest 410 472 34,000  Level Memphis Center
06:36PM 36.0758 -89.1911 211° Southwest 410 472 34,000  Level Memphis Center
06:37PM 35.9806 -89.2642 212° Southwest 410 472 34,000  Level Memphis Center
06:38PM 35.8833 -89.3372 211° Southwest 410 472 34,000  Level Memphis Center
06:39PM 35.7858 -89.4103 211° Southwest 410 472 34,000  Level Memphis Center
06:40PM 35.6906 -89.4828 212° Southwest 410 472 34,000  Level Memphis Center
06:41PM 35.5992 -89.5528 212° Southwest 405 466 34,000  Level Memphis Center
06:42PM 35.4933 -89.6328 212° Southwest 410 472 34,000  Level Memphis Center
06:43PM 35.3978 -89.7050 212° Southwest 410 472 34,000  Level Memphis Center
06:44PM 35.3000 -89.7769 211° Southwest 410 472 34,000  Level Memphis Center
06:45PM 35.2025 -89.8489 211° Southwest 410 472 34,000  Level Memphis Center
06:46PM 35.1025 -89.9231 211° Southwest 410 472 34,000  Level Memphis Center
06:47PM 35.0047 -89.9944 211° Southwest 410 472 34,000  Level Memphis Center
06:48PM 34.9111 -90.0811 217° Southwest 420 483 34,000  Level Memphis Center
06:49PM 34.8444 -90.1978 235° Southwest 420 483 34,000  Level Memphis Center
06:50PM 34.7925 -90.3242 243° Southwest 420 483 34,000  Level Memphis Center
06:51PM 34.7278 -90.4406 236° Southwest 431 496 34,000  Level Memphis Center
06:52PM 34.6567 -90.5592 234° Southwest 426 490 34,000  Level Memphis Center
06:53PM 34.5875 -90.6725 233° Southwest 431 496 34,000  Level Memphis Center
06:54PM 34.5142 -90.7881 232° Southwest 431 496 34,000  Level Memphis Center
06:55PM 34.4428 -90.9011 233° Southwest 436 502 34,000  Level Memphis Center
06:56PM 34.3692 -91.0164 232° Southwest 431 496 34,000  Level Memphis Center
06:57PM 34.3019 -91.1189 232° Southwest 431 496 34,000  Level Memphis Center
06:58PM 34.2322 -91.2339 234° Southwest 431 496 34,000  Level Memphis Center
06:59PM 34.1625 -91.3486 234° Southwest 431 496 34,000  Level Memphis Center
07:00PM 34.0906 -91.4608 232° Southwest 431 496 34,000  Level Memphis Center
07:01PM 34.0186 -91.5750 233° Southwest 431 496 34,000  Level Memphis Center
07:02PM 33.9444 -91.6842 231° Southwest 431 496 34,000  Level Memphis Center
07:03PM 33.8786 -91.7983 235° Southwest 425 489 34,000 -300 Level Memphis Center
07:04PM 33.8103 -91.9122 234° Southwest 431 496 33,500 -2,040 Descending Memphis Center
07:06PM 33.6636 -92.1306 231° Southwest 421 484 28,100 -2,460 Descending Fort Worth Center
07:07PM 33.5889 -92.2397 231° Southwest 421 484 26,400 -1,380 Descending Fort Worth Center
07:08PM 33.5203 -92.3483 233° Southwest 421 484 25,400 -960 Descending Fort Worth Center
07:09PM 33.4383 -92.4403 223° Southwest 410 472 24,500 -960 Descending Fort Worth Center
07:10PM 33.3500 -92.5272 219° Southwest 410 472 23,500 -1,200 Descending Fort Worth Center
07:11PM 33.2594 -92.6117 218° Southwest 410 472 22,200 -1,320 Descending Fort Worth Center
07:12PM 33.1817 -92.7078 226° Southwest 415 478 20,900 -1,620 Descending Fort Worth Center
07:13PM 33.1144 -92.8081 231° Southwest 350 403 19,000 -1,860 Descending Fort Worth Center
07:14PM 33.0631 -92.8875 232° Southwest 364 419 17,200 -1,860 Descending Fort Worth Center
07:15PM 32.9994 -92.9822 231° Southwest 359 413 15,400 -1,860 Descending Fort Worth Center
07:16PM 32.9403 -93.0794 234° Southwest 359 413 13,500 -1,800 Descending Fort Worth Center
07:17PM 32.8656 -93.1522 219° Southwest 359 413 11,900 -1,440 Descending Fort Worth Center
07:18PM 32.7736 -93.2058 206° Southwest 358 412 10,700 -1,380 Descending Fort Worth Center
07:19PM 32.7000 -93.2564 210° Southwest 337 388 9,200 -1,680 Descending Fort Worth Center
07:20PM 32.6244 -93.3042 208° Southwest 314 361 7,400 -1,740 Descending Fort Worth Center
07:21PM 32.5589 -93.3442 207° Southwest 301 346 5,800 -1,800 Descending Fort Worth Center
07:22PM 32.4689 -93.4047 210° Southwest 274 315 3,500 -1,440 Descending Fort Worth Center
07:23PM 32.4303 -93.4336 212° Southwest 270 311 3,000 -300 Descending Fort Worth Center
07:24PM 32.3733 -93.4853 217° Southwest 249 287 3,000 -360 Level Fort Worth Center
07:25PM 32.3372 -93.5336 229° Southwest 228 262 2,300 -660 Descending Fort Worth Center
07:25PM 32.3214 -93.5539 227° Southwest 221 254 2,200 -300 Descending Fort Worth Center
07:26PM 32.2975 -93.5942 235° Southwest 214 246 2,000 -240 Descending Fort Worth Center
07:26PM 32.2875 -93.6094 232° Southwest 200 230 2,000  Level Fort Worth Center
07:27PM 32.2864 -93.6439 268° West 181 208 2,000  Level Fort Worth Center
07:27PM 32.2828 -93.6611 256° West 143 165 2,000  Level Fort Worth Center
07:28PM 32.2986 -93.6997 296° West 122 140 2,000  Level Fort Worth Center
07:29PM 32.3264 -93.7233 324° Northwest 119 137 2,000  Level Fort Worth Center
07:30PM 32.3522 -93.7492 320° Northwest 118 136 2,000  Level Fort Worth Center